Time;durP1;ratioP1;P1;durP2;ratioP2;P2;SDS_P1;SDS_P2;PMS_P1;PMS_P2;Temp;Humidity;BMP_temperature;BMP_pressure;BME280_temperature;BME280_humidity;BME280_pressure;Samples;Min_cycle;Max_cycle;Signal;HPM_P1;HPM_P2
2024/02/24 00:01:58;;;;;;;5.80;2.80;;;5.70;99.90;;;;;;5157408;27;20449;-77
2024/02/24 00:04:26;;;;;;;3.23;2.53;;;5.70;99.90;;;;;;5175746;27;20440;-77
2024/02/24 00:06:54;;;;;;;3.70;2.80;;;5.70;99.90;;;;;;5157061;27;20465;-76
2024/02/24 00:09:22;;;;;;;4.53;2.80;;;5.60;99.90;;;;;;5157113;27;20527;-77
2024/02/24 00:11:52;;;;;;;5.10;3.00;;;5.60;99.90;;;;;;5157213;27;20445;-77
2024/02/24 00:14:21;;;;;;;4.33;2.40;;;5.60;99.90;;;;;;5157005;27;20438;-77
2024/02/24 00:16:49;;;;;;;3.50;2.90;;;5.50;99.90;;;;;;5178030;27;20456;-77
2024/02/24 00:19:17;;;;;;;7.43;3.40;;;5.50;99.90;;;;;;5160775;27;20467;-77
2024/02/24 00:21:46;;;;;;;4.30;2.90;;;5.50;99.90;;;;;;5160881;27;20466;-77
2024/02/24 00:24:14;;;;;;;5.33;3.10;;;5.50;99.90;;;;;;5161397;27;20483;-77
2024/02/24 00:26:42;;;;;;;4.37;2.90;;;5.50;99.90;;;;;;5160606;27;20461;-77
2024/02/24 00:29:12;;;;;;;4.50;2.70;;;5.40;99.90;;;;;;5179516;27;20417;-76
2024/02/24 00:31:40;;;;;;;5.23;2.90;;;5.40;99.90;;;;;;5160510;27;20456;-76
2024/02/24 00:34:09;;;;;;;4.93;2.80;;;5.40;99.90;;;;;;5160610;27;20575;-77
2024/02/24 00:36:38;;;;;;;4.70;3.03;;;5.30;99.90;;;;;;5179184;27;20510;-77
2024/02/24 00:39:06;;;;;;;4.77;3.00;;;5.30;99.90;;;;;;5160542;27;20551;-77
2024/02/24 00:41:35;;;;;;;5.93;2.90;;;5.30;99.90;;;;;;5179228;27;20465;-77
2024/02/24 00:44:03;;;;;;;4.80;2.73;;;5.30;99.90;;;;;;5160209;27;20451;-77
2024/02/24 00:46:33;;;;;;;4.87;3.03;;;5.20;99.90;;;;;;5160246;27;20457;-77
2024/02/24 00:49:01;;;;;;;5.17;2.80;;;5.20;99.90;;;;;;5160288;27;20445;-77
2024/02/24 00:51:30;;;;;;;6.00;2.80;;;5.20;99.90;;;;;;5160134;27;20472;-77
2024/02/24 00:53:58;;;;;;;7.10;2.80;;;5.10;99.90;;;;;;5160517;27;21005;-77
2024/02/24 00:56:26;;;;;;;5.93;2.97;;;5.10;99.90;;;;;;5159902;27;20532;-77
2024/02/24 00:58:54;;;;;;;4.23;2.87;;;5.10;99.90;;;;;;5160093;27;20448;-77
2024/02/24 01:01:22;;;;;;;4.53;2.70;;;5.10;99.90;;;;;;5160216;27;20855;-77
2024/02/24 01:03:52;;;;;;;3.93;2.90;;;5.10;99.90;;;;;;5160073;27;20457;-77
2024/02/24 01:06:20;;;;;;;4.17;2.70;;;5.00;99.90;;;;;;5159711;27;20489;-77
2024/02/24 01:08:49;;;;;;;3.67;2.77;;;5.00;99.90;;;;;;5159861;27;20449;-76
2024/02/24 01:11:17;;;;;;;4.10;2.60;;;5.00;99.90;;;;;;5178538;27;20472;-77
2024/02/24 01:13:45;;;;;;;5.20;3.13;;;4.90;99.90;;;;;;5159755;27;20440;-77
2024/02/24 01:16:14;;;;;;;4.30;3.00;;;4.90;99.90;;;;;;5178683;27;20460;-77
2024/02/24 01:18:42;;;;;;;4.17;2.80;;;4.90;99.90;;;;;;5178895;27;20484;-77
2024/02/24 01:21:12;;;;;;;4.80;2.90;;;4.90;99.90;;;;;;5159724;27;20468;-77
2024/02/24 01:23:40;;;;;;;3.37;2.30;;;4.90;99.90;;;;;;5159712;27;20527;-77
2024/02/24 01:26:08;;;;;;;3.47;2.70;;;4.90;99.90;;;;;;5178390;27;20436;-77
2024/02/24 01:28:37;;;;;;;5.23;2.63;;;4.80;99.90;;;;;;5158494;27;20532;-77
2024/02/24 01:31:05;;;;;;;3.50;2.23;;;4.80;99.90;;;;;;5178220;27;20468;-77
2024/02/24 01:33:34;;;;;;;4.70;2.90;;;4.80;99.90;;;;;;5159427;27;20450;-77
2024/02/24 01:36:02;;;;;;;4.30;2.50;;;4.80;99.90;;;;;;5159215;27;20440;-77
2024/02/24 01:38:32;;;;;;;3.73;2.60;;;4.80;99.90;;;;;;5178104;27;21015;-77
2024/02/24 01:41:00;;;;;;;3.20;2.70;;;4.80;99.90;;;;;;5159367;27;20454;-76
2024/02/24 01:43:29;;;;;;;3.70;2.50;;;4.70;99.90;;;;;;5159297;27;20962;-76
2024/02/24 01:45:58;;;;;;;4.30;2.73;;;4.70;99.90;;;;;;5178161;27;20445;-76
2024/02/24 01:48:26;;;;;;;4.80;2.70;;;4.70;99.90;;;;;;5159148;27;20437;-77
2024/02/24 01:50:55;;;;;;;2.70;2.30;;;4.70;99.90;;;;;;5160112;27;20469;-77
2024/02/24 01:53:23;;;;;;;5.87;3.03;;;4.70;99.90;;;;;;5159590;27;20433;-77
2024/02/24 01:55:55;;;;;;;4.53;2.40;;;4.70;99.90;;;;;;5159271;27;20479;-77
2024/02/24 01:58:23;;;;;;;4.17;2.63;;;4.60;99.90;;;;;;5159538;27;20506;-77
2024/02/24 02:00:51;;;;;;;3.70;2.70;;;4.60;99.90;;;;;;5159383;27;20458;-77
2024/02/24 02:03:21;;;;;;;4.00;3.00;;;4.60;99.90;;;;;;5159113;27;20441;-76
2024/02/24 02:05:49;;;;;;;5.20;2.90;;;4.60;99.90;;;;;;5177722;27;20455;-77
2024/02/24 02:08:18;;;;;;;3.73;3.10;;;4.60;99.90;;;;;;5158706;27;20481;-76
2024/02/24 02:10:47;;;;;;;3.80;2.57;;;4.60;99.90;;;;;;5159008;27;20460;-77
2024/02/24 02:13:17;;;;;;;5.40;2.53;;;4.60;99.90;;;;;;5158517;27;20929;-77
2024/02/24 02:15:45;;;;;;;4.03;2.33;;;4.60;99.90;;;;;;5177501;27;21082;-77
2024/02/24 02:18:13;;;;;;;4.33;3.07;;;4.50;99.90;;;;;;5159139;27;20464;-76
2024/02/24 02:20:42;;;;;;;3.97;2.30;;;4.60;99.90;;;;;;5177527;27;20432;-77
2024/02/24 02:23:12;;;;;;;6.33;3.20;;;4.50;99.90;;;;;;5159003;27;20452;-77
2024/02/24 02:25:43;;;;;;;4.53;2.67;;;4.50;99.90;;;;;;5158808;27;20945;-77
2024/02/24 02:28:11;;;;;;;4.03;2.47;;;4.50;99.90;;;;;;5177267;27;20476;-76
2024/02/24 02:30:39;;;;;;;5.60;2.67;;;4.50;99.90;;;;;;5177686;27;20429;-77
2024/02/24 02:33:08;;;;;;;5.80;2.83;;;4.50;99.90;;;;;;5158702;27;20444;-77
2024/02/24 02:35:37;;;;;;;4.77;2.67;;;4.40;99.90;;;;;;5158483;27;20502;-77
2024/02/24 02:38:09;;;;;;;5.50;3.10;;;4.50;99.90;;;;;;5158526;27;20501;-77
2024/02/24 02:40:39;;;;;;;4.40;2.70;;;4.40;99.90;;;;;;5177138;27;20429;-77
2024/02/24 02:43:07;;;;;;;5.40;2.80;;;4.40;99.90;;;;;;5158566;27;20469;-77
2024/02/24 02:45:35;;;;;;;4.83;2.87;;;4.40;99.90;;;;;;5158261;27;20447;-77
2024/02/24 02:48:04;;;;;;;5.40;3.27;;;4.40;99.90;;;;;;5158254;27;20468;-77
2024/02/24 02:50:33;;;;;;;4.80;3.40;;;4.40;99.90;;;;;;5158295;27;20484;-76
2024/02/24 02:53:02;;;;;;;4.47;2.30;;;4.30;99.90;;;;;;5158005;27;20853;-76
2024/02/24 02:55:30;;;;;;;5.10;3.10;;;4.30;99.90;;;;;;5158137;27;20495;-76
2024/02/24 02:58:00;;;;;;;4.83;2.57;;;4.30;99.90;;;;;;5157897;27;20906;-76
2024/02/24 03:00:28;;;;;;;5.20;3.10;;;4.30;99.90;;;;;;5158246;27;20440;-76
2024/02/24 03:02:56;;;;;;;6.03;2.30;;;4.30;99.90;;;;;;5176576;27;20456;-77
2024/02/24 03:05:25;;;;;;;7.77;3.27;;;4.20;99.90;;;;;;5176779;27;20502;-77
2024/02/24 03:07:53;;;;;;;3.97;2.87;;;4.30;99.90;;;;;;5157791;27;20455;-76
2024/02/24 03:10:22;;;;;;;4.20;2.73;;;4.20;99.90;;;;;;5176493;27;20432;-77
2024/02/24 03:12:50;;;;;;;3.60;2.20;;;4.20;99.90;;;;;;5176572;27;20524;-77
2024/02/24 03:15:20;;;;;;;4.53;2.60;;;4.20;99.90;;;;;;5157657;27;20440;-76
2024/02/24 03:17:48;;;;;;;3.40;2.70;;;4.20;99.90;;;;;;5157723;27;20465;-76
2024/02/24 03:20:17;;;;;;;4.53;2.70;;;4.20;99.90;;;;;;5157644;27;20526;-76
2024/02/24 03:22:45;;;;;;;4.23;2.83;;;4.20;99.90;;;;;;5176477;27;20536;-77
2024/02/24 03:25:13;;;;;;;4.50;2.93;;;4.20;99.90;;;;;;5157972;27;20445;-76
2024/02/24 03:27:41;;;;;;;7.03;2.57;;;4.20;99.90;;;;;;5157402;27;20556;-77
2024/02/24 03:30:11;;;;;;;3.97;2.60;;;4.20;99.90;;;;;;5157604;27;20501;-76
2024/02/24 03:32:41;;;;;;;4.43;3.20;;;4.10;99.90;;;;;;5157499;27;20458;-76
2024/02/24 03:35:09;;;;;;;4.60;2.70;;;4.10;99.90;;;;;;5158140;27;20481;-76
2024/02/24 03:37:38;;;;;;;4.73;2.70;;;4.10;99.90;;;;;;5157542;27;20468;-77
2024/02/24 03:40:07;;;;;;;3.30;2.50;;;4.10;99.90;;;;;;5176141;27;20775;-76
2024/02/24 03:42:35;;;;;;;4.83;3.60;;;4.10;99.90;;;;;;5157842;27;20449;-77
2024/02/24 03:45:04;;;;;;;4.17;2.70;;;4.10;99.90;;;;;;5157432;27;20449;-77
2024/02/24 03:47:33;;;;;;;2.93;2.53;;;4.10;99.90;;;;;;5157462;27;20465;-77
2024/02/24 03:50:03;;;;;;;4.77;2.67;;;4.00;99.90;;;;;;5176242;27;20429;-76
2024/02/24 03:52:31;;;;;;;4.03;2.73;;;4.00;99.90;;;;;;5161256;27;20469;-76
2024/02/24 03:54:59;;;;;;;3.87;2.70;;;4.00;99.90;;;;;;5161553;27;20437;-76
2024/02/24 03:57:28;;;;;;;4.43;2.20;;;4.00;99.90;;;;;;5179935;27;20491;-77
2024/02/24 03:59:56;;;;;;;3.40;2.33;;;4.00;99.90;;;;;;5161193;27;20444;-76
2024/02/24 04:02:25;;;;;;;4.80;2.80;;;4.00;99.90;;;;;;5161445;27;20436;-76
2024/02/24 04:04:53;;;;;;;4.67;2.70;;;4.00;99.90;;;;;;5161538;27;20443;-77
2024/02/24 04:07:23;;;;;;;5.20;2.27;;;4.00;99.90;;;;;;5181761;27;20452;-77
2024/02/24 04:09:51;;;;;;;4.17;2.90;;;4.00;99.90;;;;;;5181073;27;20523;-77
2024/02/24 04:12:19;;;;;;;3.87;2.20;;;4.00;99.90;;;;;;5161583;27;20535;-77
2024/02/24 04:14:48;;;;;;;4.70;2.67;;;4.00;99.90;;;;;;5161375;27;20451;-77
2024/02/24 04:17:16;;;;;;;3.90;2.47;;;3.90;99.90;;;;;;5180195;27;20551;-77
2024/02/24 04:19:44;;;;;;;3.50;2.63;;;3.90;99.90;;;;;;5161278;27;20830;-77
2024/02/24 04:22:13;;;;;;;3.07;2.37;;;3.90;99.90;;;;;;5179896;27;20834;-77
2024/02/24 04:24:43;;;;;;;4.40;2.60;;;3.90;99.90;;;;;;5161206;27;20473;-77
2024/02/24 04:27:11;;;;;;;3.87;3.27;;;3.90;99.90;;;;;;5160728;27;20574;-77
2024/02/24 04:29:40;;;;;;;5.33;3.67;;;3.90;99.90;;;;;;5179555;27;20440;-77
2024/02/24 04:32:08;;;;;;;4.63;2.90;;;3.90;99.90;;;;;;5160576;27;21000;-76
2024/02/24 04:34:38;;;;;;;3.07;2.43;;;3.90;99.90;;;;;;5160784;27;20474;-77
2024/02/24 04:37:06;;;;;;;4.73;2.73;;;3.90;99.90;;;;;;5160643;27;20563;-76
2024/02/24 04:39:34;;;;;;;4.20;2.57;;;3.90;99.90;;;;;;5160662;27;20509;-76
2024/02/24 04:42:04;;;;;;;3.63;2.30;;;3.90;99.90;;;;;;5160664;27;20440;-76
2024/02/24 04:44:32;;;;;;;4.73;2.60;;;3.90;99.90;;;;;;5160569;27;20483;-77
2024/02/24 04:47:01;;;;;;;3.07;2.50;;;3.90;99.90;;;;;;5160297;27;20839;-77
2024/02/24 04:49:29;;;;;;;4.57;2.83;;;4.00;99.90;;;;;;5160470;27;20517;-76
2024/02/24 04:51:57;;;;;;;3.47;3.07;;;4.00;99.90;;;;;;5160299;27;20448;-76
2024/02/24 04:54:25;;;;;;;3.13;2.50;;;3.90;99.90;;;;;;5179259;27;20489;-76
2024/02/24 04:56:54;;;;;;;4.57;2.50;;;3.90;99.90;;;;;;5160532;27;20465;-77
2024/02/24 04:59:23;;;;;;;4.60;2.80;;;4.00;99.90;;;;;;5160339;27;20528;-76
2024/02/24 05:01:52;;;;;;;3.03;2.57;;;4.00;99.90;;;;;;5159924;27;20455;-77
2024/02/24 05:04:20;;;;;;;6.83;3.10;;;4.00;99.90;;;;;;5159920;27;20436;-77
2024/02/24 05:06:49;;;;;;;5.00;2.60;;;4.00;99.90;;;;;;5159958;27;20503;-77
2024/02/24 05:09:17;;;;;;;4.63;2.30;;;4.00;99.90;;;;;;5178777;27;20523;-77
2024/02/24 05:11:45;;;;;;;5.50;3.40;;;4.00;99.90;;;;;;5160096;27;20945;-77
2024/02/24 05:14:17;;;;;;;3.10;2.20;;;4.00;99.90;;;;;;5159725;27;20475;-77
2024/02/24 05:16:47;;;;;;;3.67;2.43;;;4.00;99.90;;;;;;5178815;27;20456;-77
2024/02/24 05:19:15;;;;;;;4.33;2.70;;;4.00;99.90;;;;;;5159774;27;20441;-76
2024/02/24 05:21:44;;;;;;;5.23;2.20;;;4.00;99.90;;;;;;5159911;27;20445;-76
2024/02/24 05:24:13;;;;;;;4.23;2.90;;;4.00;99.90;;;;;;5178363;27;20465;-77
2024/02/24 05:26:41;;;;;;;3.47;2.90;;;4.00;99.90;;;;;;5178579;27;20497;-78
2024/02/24 05:29:10;;;;;;;4.07;2.93;;;4.00;99.90;;;;;;5159932;27;20444;-77
2024/02/24 05:31:38;;;;;;;4.77;2.50;;;4.00;99.90;;;;;;5160117;27;20445;-77
2024/02/24 05:34:07;;;;;;;3.60;2.40;;;4.00;99.90;;;;;;5159862;27;20469;-77
2024/02/24 05:36:36;;;;;;;5.77;2.70;;;4.00;99.90;;;;;;5159861;27;20460;-76
2024/02/24 05:39:05;;;;;;;5.03;2.50;;;4.00;99.90;;;;;;5159937;27;20448;-76
2024/02/24 05:41:33;;;;;;;3.57;2.90;;;4.00;99.90;;;;;;5159896;27;20433;-77
2024/02/24 05:44:01;;;;;;;3.60;2.93;;;4.00;99.90;;;;;;5159629;27;20452;-77
2024/02/24 05:46:30;;;;;;;3.53;2.50;;;4.00;99.90;;;;;;5159688;27;20463;-76
2024/02/24 05:48:59;;;;;;;4.70;3.10;;;4.00;99.90;;;;;;5159551;27;20819;-76
2024/02/24 05:51:29;;;;;;;4.97;3.23;;;4.00;99.90;;;;;;5159397;27;20446;-77
2024/02/24 05:53:57;;;;;;;7.60;3.80;;;4.00;99.90;;;;;;5178001;27;20516;-77
2024/02/24 05:56:25;;;;;;;6.00;3.17;;;4.00;99.90;;;;;;5159175;27;20461;-76
2024/02/24 05:58:54;;;;;;;4.17;3.30;;;4.00;99.90;;;;;;5159203;27;20440;-77
2024/02/24 06:01:22;;;;;;;8.53;4.40;;;4.00;99.90;;;;;;5159466;27;20485;-76
2024/02/24 06:03:51;;;;;;;4.13;3.03;;;4.00;99.90;;;;;;5159062;27;20433;-77
2024/02/24 06:06:19;;;;;;;5.30;3.13;;;4.00;99.90;;;;;;5159129;27;20520;-77
2024/02/24 06:08:49;;;;;;;4.80;2.67;;;4.00;99.90;;;;;;5158700;27;20512;-77
2024/02/24 06:11:17;;;;;;;5.00;2.97;;;4.00;99.90;;;;;;5177784;27;20507;-77
2024/02/24 06:13:46;;;;;;;4.50;3.13;;;4.00;99.90;;;;;;5158167;27;20492;-76
2024/02/24 06:16:15;;;;;;;6.27;2.93;;;4.00;99.90;;;;;;5158723;27;20464;-76
2024/02/24 06:18:43;;;;;;;4.73;2.70;;;4.00;99.90;;;;;;5160025;27;20576;-76
2024/02/24 06:21:11;;;;;;;4.13;2.30;;;4.00;99.90;;;;;;5158031;27;20483;-76
2024/02/24 06:23:39;;;;;;;5.97;2.47;;;4.00;99.90;;;;;;5159170;27;20440;-77
2024/02/24 06:26:09;;;;;;;5.00;3.10;;;4.00;99.90;;;;;;5180651;27;20432;-78
2024/02/24 06:28:38;;;;;;;2.87;2.50;;;4.00;99.90;;;;;;5179347;27;20997;-78
2024/02/24 06:31:06;;;;;;;3.50;2.63;;;4.00;99.90;;;;;;5160064;27;20487;-78
2024/02/24 06:33:35;;;;;;;4.07;3.00;;;4.10;99.90;;;;;;5160160;27;20591;-78
2024/02/24 06:36:04;;;;;;;4.00;2.67;;;4.00;99.90;;;;;;5159482;27;20433;-77
2024/02/24 06:38:32;;;;;;;3.50;2.90;;;4.10;99.90;;;;;;5158298;27;20468;-78
2024/02/24 06:41:01;;;;;;;3.20;2.57;;;4.10;99.90;;;;;;5158044;27;20450;-78
2024/02/24 06:43:30;;;;;;;3.40;2.80;;;4.10;99.90;;;;;;5158430;27;20598;-77
2024/02/24 06:45:59;;;;;;;4.53;3.23;;;4.20;99.90;;;;;;5158152;27;20492;-77
2024/02/24 06:48:27;;;;;;;5.93;3.27;;;4.10;99.90;;;;;;5158311;27;20484;-77
2024/02/24 06:50:56;;;;;;;4.20;2.70;;;4.20;99.90;;;;;;5158374;27;20515;-77
2024/02/24 06:53:24;;;;;;;5.63;3.10;;;4.20;99.90;;;;;;5158845;27;20471;-78
2024/02/24 06:55:52;;;;;;;3.37;2.27;;;4.20;99.90;;;;;;5177155;27;20433;-76
2024/02/24 06:58:21;;;;;;;7.70;3.50;;;4.20;99.90;;;;;;5177749;27;20839;-78
2024/02/24 07:00:51;;;;;;;4.70;3.20;;;4.30;99.90;;;;;;5178597;27;20429;-78
2024/02/24 07:03:19;;;;;;;6.27;3.30;;;4.30;99.90;;;;;;5158013;27;20934;-77
2024/02/24 07:05:47;;;;;;;4.57;2.77;;;4.30;99.90;;;;;;5176853;27;20436;-78
2024/02/24 07:08:16;;;;;;;4.83;2.60;;;4.40;99.90;;;;;;5158130;27;20516;-77
2024/02/24 07:10:44;;;;;;;5.83;4.77;;;4.40;99.90;;;;;;5158117;27;20441;-78
2024/02/24 07:13:13;;;;;;;5.37;4.30;;;4.40;99.90;;;;;;5158018;27;20937;-78
2024/02/24 07:15:41;;;;;;;5.77;3.90;;;4.50;99.90;;;;;;5158209;27;20531;-77
2024/02/24 07:18:10;;;;;;;3.60;2.80;;;4.50;99.90;;;;;;5177701;27;20525;-77
2024/02/24 07:20:39;;;;;;;9.13;6.17;;;4.60;99.90;;;;;;5158695;27;20456;-77
2024/02/24 07:23:07;;;;;;;8.30;5.23;;;4.60;99.90;;;;;;5177700;27;20496;-78
2024/02/24 07:25:35;;;;;;;7.57;5.07;;;4.60;99.90;;;;;;5159000;27;20550;-78
2024/02/24 07:28:04;;;;;;;3.67;2.70;;;4.70;99.90;;;;;;5162504;27;20475;-78
2024/02/24 07:30:32;;;;;;;4.60;4.07;;;4.70;99.90;;;;;;5163253;27;20471;-77
2024/02/24 07:33:01;;;;;;;6.00;4.50;;;4.70;99.90;;;;;;5181660;27;20492;-78
2024/02/24 07:35:31;;;;;;;10.63;6.50;;;4.70;99.90;;;;;;5162402;27;20509;-77
2024/02/24 07:37:59;;;;;;;10.20;6.27;;;4.80;99.90;;;;;;5180925;27;20879;-77
2024/02/24 07:40:27;;;;;;;10.53;4.93;;;4.80;99.90;;;;;;5162755;27;20455;-77
2024/02/24 07:42:55;;;;;;;5.73;3.03;;;4.90;99.90;;;;;;5162962;27;20465;-77
2024/02/24 07:45:25;;;;;;;6.97;4.20;;;4.90;99.90;;;;;;5181178;27;20482;-78
2024/02/24 07:47:55;;;;;;;5.13;4.37;;;5.00;99.90;;;;;;5162128;27;21029;-78
2024/02/24 07:50:24;;;;;;;9.10;5.50;;;5.00;99.90;;;;;;5162014;27;20967;-77
2024/02/24 07:52:54;;;;;;;6.80;3.67;;;5.10;99.90;;;;;;5162106;27;20813;-78
2024/02/24 07:55:22;;;;;;;5.70;3.93;;;5.10;99.90;;;;;;5161680;27;20468;-77
2024/02/24 07:57:50;;;;;;;4.03;2.80;;;5.10;99.90;;;;;;5161774;27;20461;-77
2024/02/24 08:00:19;;;;;;;6.53;4.10;;;5.20;99.90;;;;;;5180425;27;20438;-77
2024/02/24 08:02:47;;;;;;;5.57;3.40;;;5.20;99.90;;;;;;5161994;27;20811;-78
2024/02/24 08:05:17;;;;;;;4.87;3.60;;;5.30;99.90;;;;;;5161560;27;20520;-78
2024/02/24 08:07:45;;;;;;;3.97;3.33;;;5.30;99.90;;;;;;5180428;27;20915;-78
2024/02/24 08:10:15;;;;;;;6.53;3.30;;;5.30;99.90;;;;;;5180719;27;20498;-77
2024/02/24 08:12:44;;;;;;;4.20;3.37;;;5.40;99.90;;;;;;5180355;27;20413;-78
2024/02/24 08:15:12;;;;;;;5.17;2.63;;;5.40;99.90;;;;;;5161295;27;20460;-78
2024/02/24 08:17:41;;;;;;;4.80;2.80;;;5.40;99.90;;;;;;5180180;27;20543;-77
2024/02/24 08:20:10;;;;;;;13.17;9.47;;;5.50;99.90;;;;;;5161751;27;20453;-78
2024/02/24 08:22:39;;;;;;;5.30;3.77;;;5.50;99.90;;;;;;5181202;27;20433;-78
2024/02/24 08:25:08;;;;;;;5.43;3.10;;;5.50;99.90;;;;;;5162008;27;20469;-76
2024/02/24 08:27:38;;;;;;;5.57;3.50;;;5.60;99.90;;;;;;5178834;27;20430;-77
2024/02/24 08:30:08;;;;;;;3.37;3.07;;;5.70;99.90;;;;;;5160687;27;20640;-78
2024/02/24 08:32:36;;;;;;;4.60;3.43;;;5.70;99.90;;;;;;5161113;27;20445;-77
2024/02/24 08:35:05;;;;;;;4.53;3.30;;;5.80;99.90;;;;;;5160876;27;20484;-77
2024/02/24 08:37:33;;;;;;;4.40;3.80;;;5.80;99.90;;;;;;5160350;27;20511;-78
2024/02/24 08:40:02;;;;;;;4.30;2.87;;;5.80;99.90;;;;;;5161063;27;20492;-78
2024/02/24 08:42:30;;;;;;;4.43;3.20;;;5.90;99.90;;;;;;5180304;27;20994;-78
2024/02/24 08:45:00;;;;;;;6.07;3.93;;;5.90;99.90;;;;;;5160410;27;20480;-78
2024/02/24 08:47:28;;;;;;;7.33;5.13;;;5.90;99.90;;;;;;5160681;27;20503;-77
2024/02/24 08:49:57;;;;;;;5.40;3.23;;;6.00;99.90;;;;;;5179255;27;20470;-78
2024/02/24 08:52:25;;;;;;;4.50;3.00;;;6.00;99.90;;;;;;5178986;27;20469;-77
2024/02/24 08:55:06;;;;;;;4.07;3.47;;;6.10;99.90;;;;;;5179754;27;20847;-78
2024/02/24 08:57:34;;;;;;;4.93;3.00;;;6.10;99.90;;;;;;5160572;27;20553;-78
2024/02/24 09:00:05;;;;;;;5.00;3.23;;;6.20;99.90;;;;;;5160481;27;20541;-77
2024/02/24 09:02:33;;;;;;;3.50;3.20;;;6.30;99.90;;;;;;5160715;27;20462;-78
2024/02/24 09:05:02;;;;;;;5.97;3.50;;;6.30;99.90;;;;;;5160706;27;20451;-78
2024/02/24 09:07:30;;;;;;;4.83;3.33;;;6.40;99.90;;;;;;5160716;27;20527;-78
2024/02/24 09:09:58;;;;;;;5.03;3.50;;;6.40;99.90;;;;;;5179629;27;20456;-77
2024/02/24 09:12:32;;;;;;;8.30;3.50;;;6.50;99.90;;;;;;5160495;27;20443;-77
2024/02/24 09:15:00;;;;;;;4.77;3.03;;;6.50;99.90;;;;;;5160417;27;21011;-78
2024/02/24 09:17:30;;;;;;;5.20;3.30;;;6.50;99.90;;;;;;5160845;27;20470;-78
2024/02/24 09:19:58;;;;;;;4.47;3.80;;;6.60;99.90;;;;;;5160984;27;20447;-77
2024/02/24 09:22:27;;;;;;;5.50;3.57;;;6.70;99.90;;;;;;5160600;27;20438;-77
2024/02/24 09:24:55;;;;;;;8.77;7.30;;;6.80;99.90;;;;;;5160645;27;20443;-78
2024/02/24 09:27:23;;;;;;;3.60;3.13;;;6.90;99.90;;;;;;5160494;27;20988;-77
2024/02/24 09:29:51;;;;;;;5.20;2.93;;;7.00;99.90;;;;;;5179611;27;20441;-78
2024/02/24 09:32:20;;;;;;;3.70;3.13;;;7.00;99.90;;;;;;5160487;27;20449;-77
2024/02/24 09:34:50;;;;;;;3.17;2.87;;;7.10;99.90;;;;;;5179566;27;21021;-78
2024/02/24 09:37:18;;;;;;;4.23;3.67;;;7.20;99.90;;;;;;5160264;27;20574;-77
2024/02/24 09:39:46;;;;;;;4.60;3.13;;;7.20;99.90;;;;;;5160511;27;20461;-78
2024/02/24 09:42:14;;;;;;;4.90;3.30;;;7.30;99.90;;;;;;5178849;27;20447;-77
2024/02/24 09:44:43;;;;;;;3.83;3.30;;;7.30;99.90;;;;;;5160409;27;20494;-78
2024/02/24 09:47:14;;;;;;;4.67;3.47;;;7.40;99.90;;;;;;5160022;27;20466;-77
2024/02/24 09:49:42;;;;;;;6.90;3.83;;;7.40;99.90;;;;;;5158412;27;20513;-77
2024/02/24 09:52:12;;;;;;;4.30;3.40;;;7.40;99.90;;;;;;5159007;27;20432;-77
2024/02/24 09:54:40;;;;;;;3.30;3.00;;;7.40;99.90;;;;;;5159439;27;20443;-77
2024/02/24 09:57:11;;;;;;;3.10;2.77;;;7.60;99.90;;;;;;5159740;27;20469;-78
2024/02/24 09:59:39;;;;;;;3.80;3.00;;;7.70;99.90;;;;;;5159576;27;20441;-76
2024/02/24 10:02:07;;;;;;;5.07;3.27;;;7.80;99.90;;;;;;5158962;27;20444;-79
2024/02/24 10:04:35;;;;;;;3.53;3.23;;;7.80;99.90;;;;;;5159705;27;20511;-76
2024/02/24 10:07:04;;;;;;;3.40;3.10;;;7.90;99.90;;;;;;5160750;27;20990;-78
2024/02/24 10:09:34;;;;;;;5.43;4.07;;;7.90;99.90;;;;;;5160004;27;20480;-77
2024/02/24 10:12:02;;;;;;;3.43;3.13;;;8.00;99.90;;;;;;5177723;27;20432;-78
2024/02/24 10:14:33;;;;;;;4.03;3.70;;;8.00;99.90;;;;;;5159532;27;20964;-78
2024/02/24 10:17:03;;;;;;;4.50;3.80;;;8.00;99.90;;;;;;5179886;27;20522;-78
2024/02/24 10:19:32;;;;;;;4.83;4.00;;;8.10;99.90;;;;;;5160878;27;20444;-78
2024/02/24 10:22:01;;;;;;;6.57;4.67;;;8.10;99.90;;;;;;5161222;27;20441;-78
2024/02/24 10:24:29;;;;;;;5.33;3.83;;;8.10;99.90;;;;;;5161458;27;20453;-78
2024/02/24 10:27:02;;;;;;;4.13;3.80;;;8.10;99.90;;;;;;5161048;27;20476;-77
2024/02/24 10:29:31;;;;;;;4.80;4.20;;;8.10;99.90;;;;;;5161215;27;20846;-78
2024/02/24 10:32:00;;;;;;;5.00;4.57;;;8.10;99.90;;;;;;5178061;27;20440;-77
2024/02/24 10:34:29;;;;;;;5.10;3.93;;;8.20;99.90;;;;;;5159462;27;20476;-78
2024/02/24 10:37:00;;;;;;;5.07;4.57;;;8.10;99.90;;;;;;5159684;27;20512;-78
2024/02/24 10:39:33;;;;;;;5.13;4.63;;;8.20;99.90;;;;;;5178489;27;20427;-78
2024/02/24 10:42:06;;;;;;;6.03;4.40;;;8.30;99.90;;;;;;5160309;27;20440;-77
2024/02/24 10:44:35;;;;;;;5.10;4.60;;;8.30;99.90;;;;;;5159560;27;20447;-78
2024/02/24 10:47:04;;;;;;;4.70;4.30;;;8.40;99.90;;;;;;5158965;27;20471;-78
2024/02/24 10:49:32;;;;;;;4.83;4.30;;;8.40;99.90;;;;;;5159527;27;20475;-78
2024/02/24 10:52:01;;;;;;;6.00;4.70;;;8.50;99.90;;;;;;5159106;27;20435;-77
2024/02/24 10:54:32;;;;;;;5.73;4.90;;;8.50;99.90;;;;;;5178089;27;20511;-77
2024/02/24 10:57:04;;;;;;;4.90;4.40;;;8.50;99.90;;;;;;5159398;27;20480;-77
2024/02/24 10:59:33;;;;;;;3.80;3.40;;;8.50;99.90;;;;;;5178431;27;20427;-78
2024/02/24 11:02:03;;;;;;;4.67;4.27;;;8.60;99.90;;;;;;5159984;27;20816;-78
2024/02/24 11:04:35;;;;;;;4.90;4.50;;;8.60;99.90;;;;;;5159592;27;20843;-78
2024/02/24 11:07:06;;;;;;;5.13;4.63;;;8.70;99.90;;;;;;5178042;27;20551;-78
2024/02/24 11:09:36;;;;;;;4.87;4.40;;;8.80;99.90;;;;;;5158380;27;20925;-78
2024/02/24 11:12:11;;;;;;;4.00;3.67;;;8.80;99.90;;;;;;5158702;27;20452;-78
2024/02/24 11:14:41;;;;;;;4.50;4.10;;;8.80;99.90;;;;;;5159081;27;20463;-77
2024/02/24 11:17:11;;;;;;;3.57;3.27;;;8.80;99.90;;;;;;5159283;27;21060;-77
2024/02/24 11:19:44;;;;;;;4.47;4.07;;;8.80;99.90;;;;;;5158404;27;20443;-78
2024/02/24 11:22:19;;;;;;;4.33;3.93;;;8.80;99.90;;;;;;5157981;27;20985;-77
2024/02/24 11:25:00;;;;;;;4.03;3.63;;;8.90;99.90;;;;;;5176695;27;20423;-78
2024/02/24 11:27:31;;;;;;;4.83;4.53;;;8.90;99.90;;;;;;5158202;27;20519;-78
2024/02/24 11:29:59;;;;;;;5.23;3.90;;;8.90;99.90;;;;;;5177223;27;20787;-77
2024/02/24 11:32:28;;;;;;;4.40;4.10;;;8.90;99.90;;;;;;5177273;27;20432;-78
2024/02/24 11:34:56;;;;;;;5.90;3.90;;;9.00;99.90;;;;;;5157634;27;20547;-76
2024/02/24 11:37:24;;;;;;;4.47;4.17;;;9.00;99.90;;;;;;5176727;27;21035;-77
2024/02/24 11:39:55;;;;;;;4.70;4.40;;;9.10;99.90;;;;;;5158027;27;20489;-77
2024/02/24 11:42:24;;;;;;;7.83;7.07;;;9.10;99.90;;;;;;5158154;27;20448;-78
2024/02/24 11:44:54;;;;;;;4.40;4.00;;;9.10;99.90;;;;;;5157596;27;20810;-77
2024/02/24 11:47:23;;;;;;;4.10;3.80;;;9.20;99.90;;;;;;5157572;27;20456;-77
2024/02/24 11:49:52;;;;;;;4.53;4.13;;;9.20;99.90;;;;;;5176281;27;20432;-78
2024/02/24 11:52:20;;;;;;;5.10;4.57;;;9.20;99.90;;;;;;5157423;27;20451;-77
2024/02/24 11:54:49;;;;;;;5.37;4.97;;;9.20;99.90;;;;;;5157497;27;20527;-77
2024/02/24 11:57:18;;;;;;;4.70;4.37;;;9.30;99.90;;;;;;5157185;27;20476;-78
2024/02/24 11:59:50;;;;;;;5.03;4.60;;;9.30;99.90;;;;;;5157370;27;20440;-78
2024/02/24 12:02:20;;;;;;;5.03;4.47;;;9.30;99.90;;;;;;5157456;27;20440;-78
2024/02/24 12:04:49;;;;;;;4.90;4.50;;;9.40;99.90;;;;;;5157334;27;20443;-78
2024/02/24 12:07:19;;;;;;;4.17;3.83;;;9.40;99.90;;;;;;5157156;27;20488;-77
2024/02/24 12:09:48;;;;;;;4.43;4.00;;;9.40;99.90;;;;;;5157484;27;20527;-77
2024/02/24 12:12:19;;;;;;;3.47;3.27;;;9.40;99.90;;;;;;5177693;27;20428;-77
2024/02/24 12:14:48;;;;;;;3.97;3.57;;;9.40;99.90;;;;;;5179897;27;20812;-77
2024/02/24 12:17:16;;;;;;;3.40;3.10;;;9.40;99.90;;;;;;5160979;27;20479;-77
2024/02/24 12:19:46;;;;;;;2.97;2.70;;;9.40;99.90;;;;;;5161028;27;20528;-77
2024/02/24 12:22:14;;;;;;;2.43;2.23;;;9.40;99.90;;;;;;5160891;27;20552;-77
2024/02/24 12:24:43;;;;;;;3.13;2.50;;;9.50;99.90;;;;;;5160887;27;20500;-77
2024/02/24 12:27:11;;;;;;;2.73;2.10;;;9.50;99.90;;;;;;5161320;27;20472;-78
2024/02/24 12:29:39;;;;;;;3.20;2.77;;;9.50;99.90;;;;;;5180740;27;20413;-77
2024/02/24 12:32:08;;;;;;;2.73;2.30;;;9.50;99.90;;;;;;5181024;27;20489;-78
2024/02/24 12:34:37;;;;;;;3.50;2.57;;;9.50;99.90;;;;;;5181117;27;20531;-78
2024/02/24 12:37:08;;;;;;;2.63;2.40;;;9.60;99.90;;;;;;5181490;27;20491;-78
2024/02/24 12:39:41;;;;;;;2.43;2.10;;;9.60;99.90;;;;;;5161931;27;20896;-78
2024/02/24 12:42:09;;;;;;;3.80;2.33;;;9.60;99.90;;;;;;5162459;27;20524;-77
2024/02/24 12:44:38;;;;;;;2.57;2.17;;;9.60;99.90;;;;;;5180672;27;20432;-78
2024/02/24 12:47:06;;;;;;;2.50;2.30;;;9.60;99.90;;;;;;5161415;27;20461;-77
2024/02/24 12:49:35;;;;;;;3.30;2.43;;;9.60;99.90;;;;;;5161697;27;20779;-78
2024/02/24 12:52:04;;;;;;;3.20;2.90;;;9.70;99.90;;;;;;5161707;27;20885;-78
2024/02/24 12:54:34;;;;;;;3.10;2.80;;;9.80;99.90;;;;;;5161276;27;20785;-77
2024/02/24 12:57:02;;;;;;;6.40;5.80;;;9.90;99.90;;;;;;5179729;27;20492;-78
2024/02/24 12:59:31;;;;;;;3.10;2.60;;;10.00;99.90;;;;;;5179212;27;20441;-77
2024/02/24 13:01:59;;;;;;;3.00;2.80;;;10.00;99.90;;;;;;5160853;27;20890;-77
2024/02/24 13:04:28;;;;;;;3.37;3.07;;;10.00;99.90;;;;;;5161279;27;20883;-77
2024/02/24 13:06:56;;;;;;;3.23;2.90;;;10.00;99.90;;;;;;5161086;27;20553;-77